createdAt,value
2023-01-29T00:11:44.498Z,2.36
2023-01-29T00:26:46.663Z,2.50
2023-01-29T00:42:06.903Z,2.43
2023-01-29T00:57:08.722Z,2.65
2023-01-29T01:12:10.499Z,2.56
2023-01-29T01:27:13.166Z,2.38
2023-01-29T01:42:15.316Z,2.40
2023-01-29T01:57:25.176Z,2.46
2023-01-29T02:12:31.251Z,2.34
2023-01-29T02:27:52.253Z,2.22
2023-01-29T02:43:17.955Z,2.29
2023-01-29T02:58:31.735Z,2.27
2023-01-29T03:13:51.725Z,2.00
2023-01-29T03:29:13.357Z,2.03
2023-01-29T03:44:22.415Z,1.83
2023-01-29T03:59:42.691Z,1.85
2023-01-29T04:14:46.536Z,1.74
2023-01-29T04:30:15.238Z,1.98
2023-01-29T04:45:20.427Z,2.30
2023-01-29T05:00:36.308Z,2.39
2023-01-29T05:15:48.833Z,2.56
2023-01-29T05:30:54.055Z,2.54
2023-01-29T05:45:58.207Z,2.22
2023-01-29T06:01:12.158Z,2.19
2023-01-29T10:31:39.030Z,2.41
2023-01-29T10:47:13.348Z,2.39
2023-01-29T11:02:21.466Z,2.29
2023-01-29T11:17:25.491Z,2.23
2023-01-29T11:32:34.713Z,2.42
2023-01-29T11:47:36.584Z,2.19
2023-01-29T12:02:44.599Z,2.04
2023-01-29T12:17:58.555Z,2.07
2023-01-29T12:33:11.014Z,2.26
2023-01-29T12:48:19.485Z,2.14
2023-01-29T13:03:24.299Z,2.00
2023-01-29T13:18:48.010Z,1.90
2023-01-29T13:34:16.581Z,1.79
2023-01-29T13:49:27.315Z,1.86
2023-01-29T14:04:31.249Z,1.78
2023-01-29T18:39:22.150Z,1.25
2023-01-29T18:54:24.185Z,1.23
2023-01-29T19:09:26.169Z,1.30
2023-01-29T19:24:28.261Z,1.30
2023-01-29T19:39:34.553Z,1.26
2023-01-29T19:54:36.395Z,1.22
2023-01-29T20:09:38.219Z,2.10
2023-01-29T20:24:43.372Z,1.12
2023-01-29T20:39:45.637Z,0.94
2023-01-29T20:54:47.601Z,0.84
2023-01-29T21:09:49.648Z,0.73
2023-01-29T21:24:51.738Z,0.79
2023-01-29T21:39:54.395Z,0.64
2023-01-29T21:54:56.548Z,0.69
2023-01-29T22:09:58.395Z,0.80
2023-01-29T22:25:00.218Z,0.64
2023-01-29T22:40:02.363Z,0.38
2023-01-29T22:55:09.647Z,0.36
2023-01-29T23:10:15.410Z,0.36
2023-01-29T23:25:17.587Z,0.35
2023-01-29T23:40:19.974Z,0.34
2023-01-29T23:55:21.848Z,0.26
